Time;durP1;ratioP1;P1;durP2;ratioP2;P2;SDS_P1;SDS_P2;PMS_P1;PMS_P2;Temp;Humidity;BMP_temperature;BMP_pressure;BME280_temperature;BME280_humidity;BME280_pressure;Samples;Min_cycle;Max_cycle;Signal;HPM_P1;HPM_P2
2022/08/12 00:44:31;;;;;;;6.20;2.42;;;24.30;86.00;;;;;;4989091;28;20193;-69
2022/08/12 00:47:00;;;;;;;4.43;2.92;;;24.30;86.10;;;;;;4988874;28;20238;-69
2022/08/12 00:49:29;;;;;;;2.90;2.70;;;24.30;86.30;;;;;;5002956;28;20236;-68
2022/08/12 00:52:08;;;;;;;5.55;2.65;;;24.20;86.30;;;;;;5008618;28;20205;-69
2022/08/12 00:54:41;;;;;;;2.72;2.50;;;24.20;86.30;;;;;;5008114;28;20201;-68
2022/08/12 00:57:10;;;;;;;3.63;2.70;;;24.10;87.00;;;;;;5008669;28;20200;-69
2022/08/12 00:59:44;;;;;;;4.55;2.60;;;24.10;86.60;;;;;;5008085;28;20252;-70
2022/08/12 01:02:15;;;;;;;6.25;2.60;;;24.10;86.80;;;;;;5008698;28;20195;-70
2022/08/12 01:12:59;;;;;;;6.20;2.90;;;24.00;87.60;;;;;;4988712;28;20185;-71
2022/08/12 01:15:28;;;;;;;3.25;2.95;;;24.00;87.80;;;;;;5004638;28;20264;-71
2022/08/12 01:17:55;;;;;;;3.42;2.97;;;24.00;87.90;;;;;;5008365;28;20220;-71
2022/08/12 01:20:36;;;;;;;2.55;2.30;;;24.00;87.90;;;;;;5008256;28;20240;-71
2022/08/12 01:23:42;;;;;;;3.13;2.70;;;24.00;88.00;;;;;;5000949;28;20198;-70
2022/08/12 01:26:16;;;;;;;2.90;2.70;;;23.90;88.00;;;;;;4976125;28;20241;-69
2022/08/12 01:28:46;;;;;;;3.13;2.80;;;23.90;88.90;;;;;;5004513;28;20698;-69
2022/08/12 01:31:15;;;;;;;3.90;2.80;;;23.90;88.30;;;;;;5007996;28;20251;-69
2022/08/12 01:33:50;;;;;;;4.43;3.10;;;23.80;88.30;;;;;;5007782;28;20669;-69
2022/08/12 01:36:19;;;;;;;5.03;2.72;;;23.80;88.50;;;;;;5008070;28;20219;-69
2022/08/12 01:38:48;;;;;;;4.32;2.67;;;23.80;88.70;;;;;;5007880;28;20209;-70
2022/08/12 01:41:18;;;;;;;4.45;2.75;;;23.70;88.70;;;;;;5007671;28;20202;-69
2022/08/12 01:43:45;;;;;;;3.42;2.60;;;23.70;88.90;;;;;;5007779;28;20578;-68
2022/08/12 01:46:25;;;;;;;4.15;2.85;;;23.70;89.20;;;;;;5007901;28;20236;-69
2022/08/12 01:49:03;;;;;;;3.35;3.05;;;23.70;89.50;;;;;;5007821;28;20201;-69
2022/08/12 01:51:39;;;;;;;3.63;2.35;;;23.60;89.60;;;;;;5007542;28;20289;-69
2022/08/12 01:54:09;;;;;;;4.35;3.15;;;23.60;89.70;;;;;;5007831;28;20204;-69
2022/08/12 01:56:47;;;;;;;3.90;2.65;;;23.60;89.70;;;;;;5006791;28;20201;-69
2022/08/12 02:02:10;;;;;;;4.13;3.10;;;23.50;89.80;;;;;;5007792;28;20219;-68
2022/08/12 02:13:59;;;;;;;2.70;2.50;;;23.40;90.00;;;;;;4992004;28;20262;-70
2022/08/12 02:16:44;;;;;;;3.25;2.80;;;23.40;89.50;;;;;;4992367;28;20237;-70
2022/08/12 02:19:26;;;;;;;10.30;3.30;;;23.40;89.90;;;;;;5003860;28;20210;-71
2022/08/12 02:22:04;;;;;;;3.17;2.97;;;23.30;89.90;;;;;;5011692;28;20227;-72
2022/08/12 02:24:33;;;;;;;6.20;3.10;;;23.30;90.00;;;;;;5010830;28;20197;-69
2022/08/12 02:27:01;;;;;;;5.78;2.60;;;23.30;90.00;;;;;;5011077;28;20240;-69
2022/08/12 02:29:29;;;;;;;3.10;2.70;;;23.30;90.10;;;;;;5009050;28;20227;-68
2022/08/12 02:31:58;;;;;;;3.90;2.40;;;23.30;90.20;;;;;;5008843;28;20687;-68
2022/08/12 02:34:25;;;;;;;4.35;2.72;;;23.20;90.20;;;;;;5009211;28;20210;-68
2022/08/12 02:36:54;;;;;;;2.92;2.58;;;23.20;90.10;;;;;;5009281;28;20214;-68
2022/08/12 02:39:24;;;;;;;3.28;2.72;;;23.20;90.10;;;;;;5009232;28;20217;-68
2022/08/12 02:41:54;;;;;;;3.15;2.38;;;23.20;90.10;;;;;;5009032;28;20213;-67
2022/08/12 02:44:26;;;;;;;3.60;2.95;;;23.20;90.00;;;;;;5008823;28;20535;-68
2022/08/12 02:46:56;;;;;;;5.57;3.00;;;23.20;90.10;;;;;;5009097;28;20316;-68
2022/08/12 02:49:30;;;;;;;4.45;3.00;;;23.20;90.00;;;;;;5008330;28;20214;-68
2022/08/12 02:51:58;;;;;;;3.85;2.72;;;23.20;89.60;;;;;;5007135;28;20229;-68
2022/08/12 02:54:25;;;;;;;3.40;2.63;;;23.20;89.60;;;;;;5008664;28;20259;-69
2022/08/12 02:56:53;;;;;;;2.95;2.60;;;23.20;89.70;;;;;;5008294;28;20676;-68
2022/08/12 02:59:25;;;;;;;3.80;2.67;;;23.10;89.70;;;;;;5008510;28;20246;-68
2022/08/12 03:01:55;;;;;;;3.55;2.85;;;23.20;90.00;;;;;;5009049;28;20632;-68
2022/08/12 03:04:26;;;;;;;4.25;2.65;;;23.10;89.90;;;;;;5005515;28;20283;-68
2022/08/12 03:07:09;;;;;;;5.65;3.00;;;23.00;90.00;;;;;;5009817;28;20253;-67
2022/08/12 03:09:44;;;;;;;7.18;2.75;;;23.00;90.00;;;;;;5009206;28;20201;-67
2022/08/12 03:12:12;;;;;;;4.15;3.00;;;23.00;90.30;;;;;;5009296;28;20285;-68
2022/08/12 03:14:42;;;;;;;2.83;2.50;;;22.90;90.00;;;;;;5008886;28;20237;-67
2022/08/12 03:17:16;;;;;;;5.97;3.00;;;22.90;89.90;;;;;;5008786;28;20208;-68
2022/08/12 03:19:44;;;;;;;3.38;3.05;;;22.90;90.00;;;;;;5008838;28;20219;-68
2022/08/12 03:22:15;;;;;;;7.60;2.92;;;22.80;90.10;;;;;;5009156;28;20236;-68
2022/08/12 03:24:43;;;;;;;5.38;2.95;;;22.80;90.20;;;;;;5010064;28;20200;-68
2022/08/12 03:27:13;;;;;;;3.13;2.53;;;22.80;90.30;;;;;;5010186;28;20588;-68
2022/08/12 03:29:43;;;;;;;4.70;2.80;;;22.80;90.40;;;;;;5010063;28;20198;-68
2022/08/12 03:32:11;;;;;;;4.80;2.95;;;22.70;90.50;;;;;;5010136;28;20613;-68
2022/08/12 03:34:41;;;;;;;3.75;2.95;;;22.70;90.50;;;;;;5009759;28;20214;-68
2022/08/12 03:37:10;;;;;;;4.18;3.15;;;22.60;90.40;;;;;;5009674;28;20597;-68
2022/08/12 03:39:43;;;;;;;6.13;3.10;;;22.60;90.50;;;;;;5009751;28;20904;-68
2022/08/12 03:42:21;;;;;;;3.88;2.97;;;22.50;90.50;;;;;;5009634;28;20288;-68
2022/08/12 04:01:39;;;;;;;5.47;2.92;;;22.40;90.60;;;;;;4989781;28;20258;-67
2022/08/12 04:04:07;;;;;;;5.25;3.10;;;22.30;90.70;;;;;;4989673;28;20605;-67
2022/08/12 04:06:41;;;;;;;7.13;2.95;;;22.30;90.70;;;;;;4989513;28;20642;-67
2022/08/12 04:09:09;;;;;;;4.82;3.40;;;22.30;90.80;;;;;;4989607;28;20194;-67
2022/08/12 04:14:21;;;;;;;5.68;3.53;;;22.30;90.90;;;;;;4956601;28;20764;-67
2022/08/12 04:16:49;;;;;;;8.45;3.35;;;22.30;91.00;;;;;;4989434;28;20206;-66
2022/08/12 04:19:17;;;;;;;5.75;3.10;;;22.30;91.00;;;;;;5002057;28;20212;-67
2022/08/12 04:21:46;;;;;;;5.93;3.75;;;22.30;90.90;;;;;;5008979;28;20213;-67
2022/08/12 04:24:13;;;;;;;4.90;3.42;;;22.30;90.90;;;;;;5008895;28;20599;-67
2022/08/12 04:26:40;;;;;;;8.07;6.50;;;22.20;91.00;;;;;;5008746;28;20225;-67
2022/08/12 04:29:09;;;;;;;6.50;5.88;;;22.20;91.20;;;;;;5008162;28;20735;-67
2022/08/12 04:31:38;;;;;;;10.15;3.75;;;22.20;91.40;;;;;;5008976;28;20233;-67
2022/08/12 04:34:06;;;;;;;6.05;3.53;;;22.20;91.70;;;;;;5009069;28;20209;-67
2022/08/12 04:36:34;;;;;;;6.25;3.22;;;22.20;91.80;;;;;;5008499;28;20224;-67
2022/08/12 04:39:04;;;;;;;6.85;3.40;;;22.10;92.00;;;;;;5009250;28;20206;-67
2022/08/12 04:41:31;;;;;;;5.78;3.30;;;22.10;92.10;;;;;;5008920;28;20206;-67
2022/08/12 04:43:58;;;;;;;9.77;3.38;;;22.10;92.10;;;;;;5008579;28;20854;-67
2022/08/12 04:46:25;;;;;;;3.80;3.40;;;22.10;92.00;;;;;;5008548;28;20210;-67
2022/08/12 04:48:52;;;;;;;10.82;3.50;;;22.10;91.90;;;;;;5008470;28;20221;-67
2022/08/12 04:51:21;;;;;;;5.10;3.20;;;22.20;91.90;;;;;;5008912;28;20324;-67
2022/08/12 04:53:49;;;;;;;7.72;3.25;;;22.20;91.90;;;;;;5008453;28;20244;-67
2022/08/12 04:56:18;;;;;;;6.30;3.40;;;22.20;92.00;;;;;;5008386;28;20217;-68
2022/08/12 04:58:45;;;;;;;3.63;3.33;;;22.20;92.10;;;;;;5007865;28;20213;-68
2022/08/12 05:01:12;;;;;;;5.38;3.13;;;22.20;91.90;;;;;;5008703;28;20216;-67
2022/08/12 05:03:40;;;;;;;6.38;3.33;;;22.30;91.90;;;;;;5002526;28;20276;-67
2022/08/12 05:06:08;;;;;;;7.50;3.67;;;22.30;91.90;;;;;;4986608;28;20210;-68
2022/08/12 05:08:35;;;;;;;6.28;3.15;;;22.30;92.10;;;;;;4988534;28;20691;-67
2022/08/12 05:11:05;;;;;;;4.57;3.08;;;22.30;92.30;;;;;;4988658;28;20209;-68
2022/08/12 05:13:36;;;;;;;3.65;3.05;;;22.30;92.40;;;;;;4989016;28;20260;-67
2022/08/12 05:16:08;;;;;;;3.53;3.00;;;22.30;92.40;;;;;;4988332;28;20756;-67
2022/08/12 05:18:36;;;;;;;7.70;3.25;;;22.30;92.20;;;;;;4995179;28;20296;-68
2022/08/12 05:21:07;;;;;;;6.22;3.25;;;22.40;92.00;;;;;;5007993;28;20734;-67
2022/08/12 05:23:37;;;;;;;4.03;3.08;;;22.40;91.70;;;;;;5008082;28;20212;-67
2022/08/12 05:26:07;;;;;;;6.60;3.33;;;22.40;91.70;;;;;;5007916;28;20205;-68
2022/08/12 05:28:36;;;;;;;8.70;3.30;;;22.50;91.70;;;;;;5007543;28;20236;-67
2022/08/12 05:31:05;;;;;;;10.15;3.30;;;22.50;91.60;;;;;;5007988;28;20213;-67
2022/08/12 05:33:36;;;;;;;6.65;2.95;;;22.50;91.60;;;;;;5007977;28;20214;-67
2022/08/12 05:36:11;;;;;;;12.10;3.70;;;22.50;91.50;;;;;;5007853;28;20615;-67
2022/08/12 05:38:56;;;;;;;6.45;3.08;;;22.60;91.40;;;;;;5007919;28;20197;-67
2022/08/12 05:41:24;;;;;;;7.32;3.30;;;22.60;91.20;;;;;;5007291;28;20716;-67
2022/08/12 05:43:54;;;;;;;5.00;3.40;;;22.60;90.90;;;;;;5007578;28;20212;-68
2022/08/12 05:46:21;;;;;;;7.38;3.35;;;22.70;91.10;;;;;;5007994;28;20211;-67
2022/08/12 05:48:50;;;;;;;5.95;3.10;;;22.70;91.20;;;;;;5007574;28;20240;-67
2022/08/12 05:51:17;;;;;;;5.97;2.95;;;22.70;91.10;;;;;;5007644;28;20209;-68
2022/08/12 05:53:44;;;;;;;4.93;3.00;;;22.70;91.00;;;;;;5007236;28;20732;-67
2022/08/12 05:56:22;;;;;;;7.93;3.25;;;22.70;90.80;;;;;;5007418;28;20216;-68
2022/08/12 05:58:51;;;;;;;3.20;2.92;;;22.80;90.90;;;;;;5007055;28;20241;-67
2022/08/12 06:01:19;;;;;;;5.85;3.03;;;22.80;91.20;;;;;;5007754;28;20649;-68
2022/08/12 06:03:47;;;;;;;5.63;3.30;;;22.90;91.50;;;;;;5007224;28;20661;-67
2022/08/12 06:06:14;;;;;;;5.65;3.20;;;23.00;91.50;;;;;;5007506;28;20207;-68
2022/08/12 06:08:47;;;;;;;6.40;3.17;;;23.00;91.60;;;;;;5007784;28;20237;-67
2022/08/12 06:11:15;;;;;;;4.40;3.00;;;23.10;91.70;;;;;;5007471;28;20557;-67
2022/08/12 06:13:43;;;;;;;6.30;3.17;;;23.10;91.70;;;;;;5007096;28;20210;-68
2022/08/12 06:16:11;;;;;;;5.72;3.00;;;23.20;91.60;;;;;;5007754;28;20229;-68
2022/08/12 06:18:40;;;;;;;3.10;2.80;;;23.20;91.40;;;;;;5007807;28;20217;-67
2022/08/12 06:21:07;;;;;;;5.78;3.10;;;23.20;91.30;;;;;;5007345;28;20209;-67
2022/08/12 06:23:34;;;;;;;7.10;3.17;;;23.30;91.30;;;;;;5007676;28;20209;-67
2022/08/12 06:26:01;;;;;;;5.57;2.50;;;23.30;91.30;;;;;;5007592;28;20300;-67
2022/08/12 06:28:29;;;;;;;4.63;2.80;;;23.30;91.10;;;;;;5007902;28;20324;-67
2022/08/12 06:30:57;;;;;;;5.28;2.92;;;23.30;90.90;;;;;;5007564;28;20540;-68
2022/08/12 06:33:24;;;;;;;3.63;2.75;;;23.40;90.70;;;;;;5007756;28;20206;-68
2022/08/12 06:35:53;;;;;;;3.53;2.70;;;23.50;90.60;;;;;;5007100;28;20669;-67
2022/08/12 06:38:21;;;;;;;3.03;2.83;;;23.50;90.50;;;;;;5007403;28;20222;-67
2022/08/12 06:43:36;;;;;;;5.10;2.45;;;23.60;90.40;;;;;;5007225;28;20196;-68
2022/08/12 06:46:07;;;;;;;2.65;2.42;;;23.60;90.30;;;;;;5007251;28;20217;-67
2022/08/12 06:48:34;;;;;;;3.78;2.03;;;23.70;90.00;;;;;;5007447;28;20328;-67
2022/08/12 06:51:04;;;;;;;6.80;2.40;;;23.70;90.10;;;;;;5007520;28;20263;-67
2022/08/12 06:53:32;;;;;;;4.88;2.33;;;23.70;89.30;;;;;;5010633;28;20732;-67
2022/08/12 06:56:00;;;;;;;7.50;2.88;;;23.80;89.00;;;;;;5010896;28;20214;-67
2022/08/12 06:58:28;;;;;;;3.45;2.40;;;23.80;88.30;;;;;;5010463;28;20205;-67
2022/08/12 07:00:56;;;;;;;3.63;2.05;;;23.80;88.00;;;;;;5010245;28;20237;-67
2022/08/12 07:03:27;;;;;;;2.60;1.70;;;23.90;87.50;;;;;;5010877;28;20210;-67
2022/08/12 07:05:55;;;;;;;2.75;1.60;;;23.90;87.30;;;;;;5010552;28;20220;-67
2022/08/12 07:08:27;;;;;;;3.97;1.50;;;23.90;87.70;;;;;;5010614;28;20244;-67
2022/08/12 07:10:57;;;;;;;5.22;2.20;;;24.00;87.70;;;;;;5010138;28;20200;-67
2022/08/12 07:13:25;;;;;;;5.95;1.83;;;24.00;87.30;;;;;;5010694;28;20376;-67
2022/08/12 07:15:55;;;;;;;7.15;1.88;;;24.00;86.50;;;;;;5010213;28;20225;-67
2022/08/12 07:18:28;;;;;;;2.78;2.05;;;24.10;86.50;;;;;;5010279;28;20237;-68
2022/08/12 07:20:56;;;;;;;4.90;1.85;;;24.10;86.40;;;;;;5010013;28;20252;-68
2022/08/12 07:23:25;;;;;;;4.18;1.77;;;24.20;86.90;;;;;;5010591;28;20300;-67
2022/08/12 07:25:51;;;;;;;5.63;1.83;;;24.20;86.50;;;;;;5009614;28;20205;-67
2022/08/12 07:28:22;;;;;;;7.50;1.88;;;24.30;86.30;;;;;;5010350;28;20252;-67
2022/08/12 07:30:50;;;;;;;4.65;1.88;;;24.30;86.30;;;;;;5010097;28;20232;-67
2022/08/12 07:33:21;;;;;;;1.63;1.52;;;24.40;85.50;;;;;;5009883;28;20672;-67
2022/08/12 07:35:49;;;;;;;3.88;1.67;;;24.40;84.80;;;;;;5009611;28;20566;-67
2022/08/12 07:38:24;;;;;;;2.20;1.92;;;24.50;84.40;;;;;;5009977;28;20271;-68
2022/08/12 07:40:55;;;;;;;4.72;1.88;;;24.60;84.30;;;;;;5009455;28;20193;-67
2022/08/12 07:43:22;;;;;;;2.03;1.83;;;24.60;84.50;;;;;;5009823;28;20193;-67
2022/08/12 07:45:52;;;;;;;3.45;1.95;;;24.60;84.40;;;;;;5009591;28;20896;-67
2022/08/12 07:48:20;;;;;;;5.65;1.88;;;24.70;84.70;;;;;;5009665;28;20225;-68
2022/08/12 07:50:47;;;;;;;4.20;1.70;;;24.80;84.40;;;;;;5009614;28;20206;-68
2022/08/12 07:53:14;;;;;;;3.28;1.80;;;24.80;84.30;;;;;;5009634;28;20209;-68
2022/08/12 07:55:41;;;;;;;2.33;1.30;;;24.90;83.80;;;;;;5009671;28;20296;-68
2022/08/12 07:58:09;;;;;;;5.78;1.73;;;24.90;83.80;;;;;;5009614;28;20220;-68
2022/08/12 08:00:39;;;;;;;8.90;2.22;;;25.00;83.70;;;;;;5009098;28;20241;-68
2022/08/12 08:03:07;;;;;;;3.90;1.67;;;25.00;83.80;;;;;;5009224;28;20263;-67
2022/08/12 08:05:37;;;;;;;2.90;1.60;;;25.10;82.90;;;;;;5009212;28;20217;-68
2022/08/12 08:08:13;;;;;;;1.77;1.58;;;25.10;82.50;;;;;;5009552;28;20229;-68
2022/08/12 08:10:40;;;;;;;2.22;1.55;;;25.20;83.20;;;;;;5009033;28;20197;-68
2022/08/12 08:13:07;;;;;;;2.92;1.50;;;25.20;82.00;;;;;;5009221;28;20215;-68
2022/08/12 08:15:37;;;;;;;5.13;1.33;;;25.20;81.60;;;;;;5008950;28;20284;-68
2022/08/12 08:18:05;;;;;;;3.92;1.38;;;25.30;81.80;;;;;;5009061;28;20220;-68
2022/08/12 08:20:36;;;;;;;6.65;1.88;;;25.40;81.90;;;;;;5009194;28;20213;-68
2022/08/12 08:23:06;;;;;;;4.68;1.70;;;25.40;82.20;;;;;;5008913;28;20198;-68
2022/08/12 08:25:37;;;;;;;1.70;1.30;;;25.40;81.90;;;;;;5008822;28;20244;-68
2022/08/12 08:28:06;;;;;;;4.35;1.75;;;25.50;82.30;;;;;;5009001;28;20283;-68
2022/08/12 08:30:38;;;;;;;2.40;1.25;;;25.50;82.10;;;;;;5009097;28;20212;-68
2022/08/12 08:33:08;;;;;;;2.08;1.10;;;25.60;81.60;;;;;;5008925;28;20198;-67
2022/08/12 08:35:36;;;;;;;5.68;1.33;;;25.60;81.00;;;;;;5008670;28;20206;-68
2022/08/12 08:38:11;;;;;;;2.78;0.80;;;25.70;81.40;;;;;;5008719;28;20213;-68
2022/08/12 08:43:31;;;;;;;2.42;1.13;;;25.80;80.00;;;;;;4988217;28;20206;-68
2022/08/12 08:46:04;;;;;;;3.35;1.20;;;25.90;79.60;;;;;;5008707;28;20225;-67
2022/08/12 08:48:33;;;;;;;5.85;1.17;;;25.90;79.20;;;;;;5008603;28;20235;-67
2022/08/12 08:51:04;;;;;;;3.08;1.08;;;25.90;78.80;;;;;;5008407;28;20708;-67
2022/08/12 08:53:31;;;;;;;2.78;1.17;;;26.00;79.10;;;;;;5008557;28;20239;-68
2022/08/12 08:55:58;;;;;;;3.30;1.20;;;26.00;79.20;;;;;;5008435;28;20589;-67
2022/08/12 08:58:25;;;;;;;1.75;1.17;;;26.00;78.60;;;;;;5008670;28;20210;-68
2022/08/12 09:00:55;;;;;;;2.40;1.40;;;26.10;77.80;;;;;;5008163;28;20233;-68
2022/08/12 09:03:23;;;;;;;2.90;1.35;;;26.10;77.80;;;;;;5008596;28;20209;-68
2022/08/12 09:05:49;;;;;;;1.55;1.45;;;26.10;77.80;;;;;;5008126;28;20680;-67
2022/08/12 09:08:18;;;;;;;6.22;1.30;;;26.20;78.00;;;;;;5008288;28;20244;-67
2022/08/12 09:10:45;;;;;;;3.05;1.17;;;26.20;78.10;;;;;;5007878;28;20221;-67
2022/08/12 09:13:26;;;;;;;4.10;1.27;;;26.20;78.20;;;;;;5008426;28;20212;-67
2022/08/12 09:15:53;;;;;;;4.57;1.85;;;26.30;77.60;;;;;;5007663;28;20208;-68
2022/08/12 09:18:20;;;;;;;3.60;1.42;;;26.40;77.50;;;;;;5008213;28;20299;-68
2022/08/12 09:20:49;;;;;;;1.75;1.38;;;26.50;77.60;;;;;;5007614;28;20831;-68
2022/08/12 09:23:17;;;;;;;4.25;1.20;;;26.50;77.30;;;;;;5007847;28;20221;-67
2022/08/12 09:25:47;;;;;;;10.75;2.13;;;26.50;77.20;;;;;;5007394;28;20661;-67
2022/08/12 09:28:15;;;;;;;2.60;1.40;;;26.60;77.20;;;;;;5007715;28;20229;-68
2022/08/12 09:30:44;;;;;;;1.95;1.30;;;26.60;76.90;;;;;;5007882;28;20212;-67
2022/08/12 09:33:12;;;;;;;3.45;1.83;;;26.60;76.80;;;;;;5008050;28;20205;-68
2022/08/12 09:35:42;;;;;;;1.83;1.45;;;26.70;77.20;;;;;;5007661;28;20209;-68
2022/08/12 09:38:16;;;;;;;1.65;1.42;;;26.70;77.30;;;;;;5008050;28;20198;-68
2022/08/12 09:40:43;;;;;;;2.85;1.48;;;26.80;77.80;;;;;;5007517;28;20197;-68
2022/08/12 09:45:56;;;;;;;2.42;1.50;;;26.90;75.60;;;;;;5007481;28;20197;-68
2022/08/12 09:48:23;;;;;;;6.25;1.58;;;27.00;76.10;;;;;;5008092;28;20229;-68
2022/08/12 09:50:51;;;;;;;3.00;1.40;;;27.10;76.20;;;;;;5007728;28;20231;-68
2022/08/12 09:53:23;;;;;;;1.30;1.20;;;27.10;76.10;;;;;;5007737;28;20209;-67
2022/08/12 09:55:51;;;;;;;1.75;1.20;;;27.20;75.30;;;;;;5007337;28;20280;-68
2022/08/12 09:58:18;;;;;;;3.88;1.77;;;27.20;74.60;;;;;;5007725;28;20213;-67
2022/08/12 10:00:46;;;;;;;2.35;1.20;;;27.20;73.50;;;;;;5007253;28;20233;-68
2022/08/12 10:03:15;;;;;;;1.17;1.13;;;27.20;73.70;;;;;;5007700;28;20268;-68
2022/08/12 10:05:43;;;;;;;1.90;1.30;;;27.20;74.20;;;;;;5007159;28;20206;-67
2022/08/12 10:08:12;;;;;;;2.47;1.10;;;27.30;74.30;;;;;;5007680;28;20206;-67
2022/08/12 10:13:42;;;;;;;3.83;1.63;;;27.50;73.40;;;;;;5006592;28;20357;-68
2022/08/12 10:16:11;;;;;;;2.00;1.20;;;27.50;73.20;;;;;;5008009;28;20278;-67
2022/08/12 10:18:40;;;;;;;2.00;1.45;;;27.60;73.30;;;;;;5007429;28;20213;-67
2022/08/12 10:21:09;;;;;;;3.65;1.30;;;27.60;74.00;;;;;;5007202;28;20715;-68
2022/08/12 10:23:37;;;;;;;4.80;1.40;;;27.70;74.20;;;;;;5007540;28;20592;-67
2022/08/12 10:31:37;;;;;;;2.83;1.70;;;27.90;73.60;;;;;;5011170;28;20197;-68
2022/08/12 10:34:05;;;;;;;1.50;1.40;;;27.90;73.50;;;;;;5011473;28;20292;-68
2022/08/12 10:36:32;;;;;;;2.83;1.38;;;28.00;72.60;;;;;;5011310;28;20271;-68
2022/08/12 10:38:59;;;;;;;2.88;1.20;;;28.10;72.70;;;;;;5010887;28;20213;-68
2022/08/12 10:44:12;;;;;;;4.35;2.13;;;28.10;72.20;;;;;;5011172;28;20256;-68
2022/08/12 10:46:41;;;;;;;2.50;1.77;;;28.20;72.00;;;;;;5010644;28;20748;-68
2022/08/12 10:49:11;;;;;;;1.88;1.30;;;28.30;71.30;;;;;;5010960;28;20260;-68
2022/08/12 10:51:38;;;;;;;2.50;1.45;;;28.20;71.20;;;;;;5010830;28;20213;-68
2022/08/12 10:54:04;;;;;;;3.70;1.73;;;28.20;71.00;;;;;;5010961;28;20589;-68
2022/08/12 10:56:33;;;;;;;5.88;1.52;;;28.30;70.60;;;;;;5010529;28;20205;-68
2022/08/12 10:58:59;;;;;;;1.48;1.38;;;28.40;70.70;;;;;;5010479;28;20618;-68
2022/08/12 11:01:27;;;;;;;8.30;2.22;;;28.40;70.80;;;;;;5010820;28;20202;-68
2022/08/12 11:03:54;;;;;;;4.10;1.30;;;28.40;70.80;;;;;;5010169;28;20664;-68
2022/08/12 11:06:22;;;;;;;8.18;1.60;;;28.50;70.40;;;;;;5010590;28;20220;-68
2022/08/12 11:08:49;;;;;;;7.85;1.80;;;28.50;70.00;;;;;;5010375;28;20280;-68
2022/08/12 11:11:17;;;;;;;2.20;1.48;;;28.60;70.30;;;;;;5010326;28;20305;-68
2022/08/12 11:13:46;;;;;;;3.72;1.35;;;28.60;69.90;;;;;;5010132;28;20299;-68
2022/08/12 11:16:15;;;;;;;4.78;1.52;;;28.70;70.00;;;;;;5010275;28;20210;-68
2022/08/12 11:18:42;;;;;;;3.40;1.60;;;28.80;70.20;;;;;;5010038;28;20213;-68
2022/08/12 11:21:08;;;;;;;4.10;1.50;;;28.80;70.10;;;;;;5010388;28;20578;-68
2022/08/12 11:23:35;;;;;;;3.50;1.52;;;28.90;70.50;;;;;;5010300;28;20221;-68
2022/08/12 11:26:06;;;;;;;3.72;1.45;;;29.10;68.80;;;;;;5009994;28;20209;-68
2022/08/12 11:28:33;;;;;;;8.48;1.80;;;29.10;68.80;;;;;;5010109;28;20194;-68
2022/08/12 11:31:01;;;;;;;6.55;1.80;;;29.20;68.70;;;;;;5010164;28;20213;-68
2022/08/12 11:33:28;;;;;;;4.40;1.48;;;29.30;69.00;;;;;;5009961;28;20217;-67
2022/08/12 11:35:55;;;;;;;4.10;1.50;;;29.30;69.60;;;;;;5009828;28;20209;-68
2022/08/12 11:38:21;;;;;;;2.88;1.60;;;29.30;69.20;;;;;;5009419;28;20839;-69
2022/08/12 11:40:48;;;;;;;4.47;1.30;;;29.30;69.40;;;;;;5009300;28;20592;-68
2022/08/12 11:43:15;;;;;;;2.30;1.55;;;29.40;68.80;;;;;;5009952;28;20296;-68
2022/08/12 11:45:42;;;;;;;1.70;1.60;;;29.30;68.60;;;;;;5009984;28;20209;-68
2022/08/12 11:48:10;;;;;;;3.03;1.92;;;29.30;69.00;;;;;;5009467;28;20223;-68
2022/08/12 11:50:37;;;;;;;3.80;1.42;;;29.20;68.00;;;;;;5009441;28;20589;-68
2022/08/12 11:53:04;;;;;;;1.95;1.35;;;29.00;68.30;;;;;;5009526;28;20241;-68
2022/08/12 11:55:31;;;;;;;1.77;1.35;;;29.00;69.30;;;;;;5009403;28;20217;-68
2022/08/12 11:57:59;;;;;;;3.08;1.40;;;29.00;69.70;;;;;;5009518;28;20260;-68
2022/08/12 12:00:27;;;;;;;6.03;1.45;;;29.00;69.20;;;;;;5009173;28;20237;-68
2022/08/12 12:02:54;;;;;;;5.47;1.70;;;29.10;67.80;;;;;;5009162;28;20210;-68
2022/08/12 12:05:22;;;;;;;2.22;1.38;;;29.10;68.20;;;;;;5009181;28;20216;-68
2022/08/12 12:07:49;;;;;;;3.60;1.67;;;29.20;68.70;;;;;;5009458;28;20205;-68
2022/08/12 12:10:19;;;;;;;4.93;1.40;;;29.30;69.30;;;;;;5009065;28;20596;-68
2022/08/12 12:12:46;;;;;;;1.73;1.33;;;29.30;68.50;;;;;;5009212;28;20213;-68
2022/08/12 12:15:13;;;;;;;2.95;1.35;;;29.30;68.10;;;;;;5009109;28;20230;-68
2022/08/12 12:17:41;;;;;;;1.98;1.27;;;29.30;68.50;;;;;;5009041;28;20213;-68
2022/08/12 12:20:11;;;;;;;5.65;1.70;;;29.30;68.40;;;;;;5009316;28;20217;-68
2022/08/12 12:22:41;;;;;;;4.53;1.90;;;29.40;69.10;;;;;;5008620;28;20210;-68
2022/08/12 12:25:09;;;;;;;1.95;1.58;;;29.40;68.60;;;;;;5009139;28;20248;-68
2022/08/12 12:27:50;;;;;;;5.03;1.50;;;29.50;68.10;;;;;;5009046;28;20212;-68
2022/08/12 12:30:17;;;;;;;1.35;1.15;;;29.40;68.20;;;;;;5008777;28;20240;-68
2022/08/12 12:32:44;;;;;;;3.38;1.50;;;29.40;67.90;;;;;;5008976;28;21002;-68
2022/08/12 12:35:11;;;;;;;2.00;1.50;;;29.50;68.30;;;;;;5008894;28;20213;-68
2022/08/12 12:37:53;;;;;;;2.08;1.27;;;29.50;68.60;;;;;;5008693;28;20205;-68
2022/08/12 12:40:20;;;;;;;2.75;1.40;;;29.50;68.50;;;;;;5008689;28;20197;-68
2022/08/12 12:42:47;;;;;;;2.25;1.52;;;29.50;68.60;;;;;;5008540;28;20205;-68
2022/08/12 12:45:15;;;;;;;4.88;1.67;;;29.50;68.60;;;;;;5008982;28;20205;-68
2022/08/12 12:47:58;;;;;;;1.42;1.30;;;29.60;68.30;;;;;;5008287;28;20796;-68
2022/08/12 12:50:25;;;;;;;3.05;1.23;;;29.60;68.30;;;;;;4988844;28;20234;-68
2022/08/12 12:52:54;;;;;;;3.88;1.30;;;29.50;67.30;;;;;;4989196;28;20198;-68
2022/08/12 12:55:21;;;;;;;1.50;1.33;;;29.50;67.50;;;;;;4988959;28;20420;-68
2022/08/12 12:57:49;;;;;;;1.48;1.35;;;29.50;67.80;;;;;;4988654;28;21045;-68
2022/08/12 13:00:17;;;;;;;1.58;1.30;;;29.60;67.80;;;;;;4988550;28;20242;-68
2022/08/12 13:02:51;;;;;;;1.95;1.33;;;29.60;67.40;;;;;;4986905;28;20209;-68
2022/08/12 13:05:18;;;;;;;1.50;1.40;;;29.60;67.20;;;;;;4986952;28;20249;-68
2022/08/12 13:07:45;;;;;;;4.82;1.40;;;29.60;67.30;;;;;;5006311;28;20208;-68
2022/08/12 13:10:14;;;;;;;1.75;1.55;;;29.80;67.30;;;;;;5006512;28;20237;-68
2022/08/12 13:12:42;;;;;;;2.05;1.45;;;29.80;67.70;;;;;;5006131;28;20694;-68
2022/08/12 13:15:14;;;;;;;1.40;1.30;;;29.90;67.30;;;;;;5005925;28;20240;-68
2022/08/12 13:17:42;;;;;;;1.52;1.08;;;30.00;67.80;;;;;;5006066;28;20882;-68
2022/08/12 13:20:12;;;;;;;4.28;1.30;;;30.00;67.90;;;;;;5006005;28;20685;-68
2022/08/12 13:22:38;;;;;;;5.70;1.25;;;30.00;66.40;;;;;;5005663;28;20220;-68
2022/08/12 13:25:06;;;;;;;1.35;1.30;;;30.10;66.60;;;;;;5005894;28;20228;-68
2022/08/12 13:27:40;;;;;;;1.77;1.35;;;30.10;67.00;;;;;;5003984;28;20214;-68
2022/08/12 13:30:10;;;;;;;2.13;1.35;;;30.20;66.10;;;;;;4986078;28;20237;-68
2022/08/12 13:32:37;;;;;;;1.55;1.45;;;30.20;66.30;;;;;;4985936;28;20206;-69
2022/08/12 13:35:05;;;;;;;3.80;1.30;;;30.20;66.70;;;;;;5001589;28;20288;-68
2022/08/12 13:37:32;;;;;;;1.63;1.27;;;30.20;66.50;;;;;;5005639;28;20685;-68
2022/08/12 13:39:59;;;;;;;3.22;1.50;;;30.20;67.10;;;;;;5006126;28;20248;-68
2022/08/12 13:42:26;;;;;;;5.10;1.40;;;30.20;67.10;;;;;;5005980;28;20248;-68
2022/08/12 13:44:54;;;;;;;1.63;1.40;;;30.10;67.60;;;;;;5006027;28;20292;-68
2022/08/12 13:47:22;;;;;;;3.60;1.45;;;30.00;67.60;;;;;;5006576;28;20349;-68
2022/08/12 13:49:50;;;;;;;21.98;2.72;;;29.90;67.20;;;;;;5006166;28;20241;-68
2022/08/12 13:52:17;;;;;;;2.30;1.35;;;29.90;67.00;;;;;;5006823;28;20209;-68
2022/08/12 13:54:46;;;;;;;5.15;1.38;;;29.80;65.60;;;;;;5006345;28;20206;-68
2022/08/12 13:57:14;;;;;;;3.30;1.48;;;29.70;67.10;;;;;;5005873;28;20217;-68
2022/08/12 13:59:43;;;;;;;1.20;1.10;;;29.60;66.70;;;;;;5005532;28;20245;-68
2022/08/12 14:02:12;;;;;;;2.58;1.40;;;29.50;67.10;;;;;;5008521;28;20233;-68
2022/08/12 14:04:40;;;;;;;2.28;1.30;;;29.50;67.30;;;;;;5009603;28;20209;-68
2022/08/12 14:07:07;;;;;;;1.48;1.38;;;29.40;66.80;;;;;;5009527;28;20771;-68
2022/08/12 14:10:35;;;;;;;3.80;1.55;;;29.40;66.60;;;;;;5010031;28;20241;-69
2022/08/12 14:12:21;;;;;;;1.50;1.40;;;29.30;67.50;;;;;;5009123;28;20464;-69
2022/08/12 14:14:49;;;;;;;1.30;1.20;;;29.30;67.60;;;;;;5009750;28;20233;-69
2022/08/12 14:17:18;;;;;;;3.50;1.45;;;29.30;67.90;;;;;;5009498;28;20244;-69
2022/08/12 14:22:32;;;;;;;3.75;1.73;;;29.40;68.60;;;;;;5009635;28;20205;-69
2022/08/12 14:25:00;;;;;;;2.78;1.33;;;29.40;68.00;;;;;;5009552;28;20233;-69
2022/08/12 14:27:28;;;;;;;3.13;1.65;;;29.40;67.70;;;;;;5009352;28;20209;-69
2022/08/12 14:29:56;;;;;;;1.52;1.48;;;29.40;68.20;;;;;;5008439;28;20241;-70
2022/08/12 14:32:24;;;;;;;3.22;1.40;;;29.30;67.90;;;;;;5009564;28;20336;-69
2022/08/12 14:34:52;;;;;;;1.55;1.30;;;29.30;67.90;;;;;;5009831;28;20365;-69
2022/08/12 14:37:21;;;;;;;3.42;1.48;;;29.20;67.60;;;;;;5009187;28;20217;-69
2022/08/12 14:39:48;;;;;;;1.75;1.40;;;29.30;68.00;;;;;;5009089;28;20221;-69
2022/08/12 14:42:15;;;;;;;2.80;1.27;;;29.30;68.30;;;;;;5008811;28;20217;-69